Time;durP1;ratioP1;P1;durP2;ratioP2;P2;SDS_P1;SDS_P2;PMS_P1;PMS_P2;Temp;Humidity;BMP_temperature;BMP_pressure;BME280_temperature;BME280_humidity;BME280_pressure;Samples;Min_cycle;Max_cycle;Signal;HPM_P1;HPM_P2
2021/11/04 00:02:08;;;;;;;131.98;27.98;;;7.60;87.50;;;;;;5036117;28;20036;-37
2021/11/04 00:04:34;;;;;;;144.98;31.05;;;7.60;87.50;;;;;;5036300;28;20034;-36
2021/11/04 00:07:01;;;;;;;104.97;27.92;;;7.60;87.70;;;;;;5036433;28;20042;-36
2021/11/04 00:09:27;;;;;;;126.53;29.58;;;7.60;88.00;;;;;;5036846;28;20424;-37
2021/11/04 00:11:52;;;;;;;145.32;28.60;;;7.60;88.10;;;;;;5035214;28;20033;-36
2021/11/04 00:14:18;;;;;;;167.55;30.77;;;7.60;88.00;;;;;;5036592;28;20367;-36
2021/11/04 00:16:44;;;;;;;149.18;31.55;;;7.60;88.30;;;;;;5035917;28;20064;-36
2021/11/04 00:19:10;;;;;;;101.20;23.42;;;7.60;88.50;;;;;;5035995;28;20041;-37
2021/11/04 00:21:36;;;;;;;78.10;23.38;;;7.60;88.70;;;;;;5035925;28;20112;-37
2021/11/04 00:24:03;;;;;;;86.93;21.25;;;7.60;88.50;;;;;;5036117;28;20105;-36
2021/11/04 00:26:29;;;;;;;59.83;21.10;;;7.70;88.10;;;;;;5035956;28;20037;-36
2021/11/04 00:28:56;;;;;;;82.15;24.48;;;7.70;87.90;;;;;;5035979;28;20419;-36
2021/11/04 00:31:23;;;;;;;157.85;25.75;;;7.70;88.00;;;;;;5035881;28;20040;-36
2021/11/04 00:33:52;;;;;;;150.50;27.10;;;7.80;88.20;;;;;;5036031;28;20379;-36
2021/11/04 00:36:19;;;;;;;143.02;29.05;;;7.80;88.30;;;;;;5036176;28;20069;-37
2021/11/04 00:38:46;;;;;;;126.95;24.98;;;7.80;88.30;;;;;;5034426;28;20429;-36
2021/11/04 00:41:16;;;;;;;120.03;26.13;;;7.80;88.70;;;;;;5036173;28;20037;-36
2021/11/04 00:43:43;;;;;;;196.75;28.17;;;7.80;88.90;;;;;;5035710;28;20090;-36
2021/11/04 00:46:09;;;;;;;77.32;19.08;;;7.90;88.80;;;;;;5035659;28;20091;-37
2021/11/04 00:48:35;;;;;;;99.07;20.65;;;7.90;88.80;;;;;;5035634;28;20040;-37
2021/11/04 00:51:01;;;;;;;101.63;21.20;;;7.90;88.80;;;;;;5035958;28;20418;-36
2021/11/04 00:53:27;;;;;;;56.40;19.15;;;7.90;88.50;;;;;;5035415;28;20075;-36
2021/11/04 00:55:56;;;;;;;127.10;21.15;;;8.00;88.50;;;;;;5035580;28;20518;-36
2021/11/04 00:58:22;;;;;;;91.18;24.23;;;8.00;88.60;;;;;;5035689;28;20405;-37
2021/11/04 01:00:48;;;;;;;91.40;20.20;;;8.00;88.70;;;;;;5035457;28;20168;-36
2021/11/04 01:03:14;;;;;;;104.72;22.52;;;8.10;88.80;;;;;;5035440;28;20050;-37
2021/11/04 01:05:40;;;;;;;80.35;21.02;;;8.10;88.70;;;;;;5036017;28;20568;-36
2021/11/04 01:08:05;;;;;;;75.80;22.70;;;8.10;88.50;;;;;;5035630;28;20448;-37
2021/11/04 01:10:31;;;;;;;72.72;17.48;;;8.10;88.60;;;;;;5036029;28;20055;-37
2021/11/04 01:12:57;;;;;;;76.20;19.27;;;8.20;88.60;;;;;;5035386;28;20032;-35
2021/11/04 01:15:23;;;;;;;108.68;20.67;;;8.20;88.50;;;;;;5035929;28;20040;-35
2021/11/04 01:17:49;;;;;;;67.10;16.80;;;8.20;88.80;;;;;;5035355;28;20041;-36
2021/11/04 01:20:15;;;;;;;144.90;23.60;;;8.20;88.90;;;;;;5035886;28;20074;-36
2021/11/04 01:22:41;;;;;;;91.75;20.77;;;8.30;89.00;;;;;;5035372;28;20417;-35
2021/11/04 01:25:07;;;;;;;139.70;24.35;;;8.30;89.10;;;;;;5035747;28;20034;-36
2021/11/04 01:27:33;;;;;;;86.50;18.85;;;8.30;89.30;;;;;;5035340;28;20334;-35
2021/11/04 01:29:59;;;;;;;123.88;23.85;;;8.30;89.30;;;;;;5035762;28;20018;-36
2021/11/04 01:32:25;;;;;;;61.45;17.58;;;8.30;89.30;;;;;;5035395;28;20044;-36
2021/11/04 01:34:51;;;;;;;126.97;25.90;;;8.40;89.60;;;;;;5035277;28;20485;-37
2021/11/04 01:37:17;;;;;;;280.42;33.17;;;8.40;89.70;;;;;;5035176;28;20033;-35
2021/11/04 01:39:42;;;;;;;59.13;20.58;;;8.40;89.60;;;;;;5035586;28;20113;-35
2021/11/04 01:42:08;;;;;;;66.10;18.88;;;8.40;89.60;;;;;;5035376;28;20034;-35
2021/11/04 01:44:34;;;;;;;122.50;24.40;;;8.50;89.60;;;;;;5037513;28;20025;-36
2021/11/04 01:47:00;;;;;;;96.20;23.15;;;8.40;89.50;;;;;;5039082;28;20044;-35
2021/11/04 01:49:26;;;;;;;76.97;21.02;;;8.40;89.20;;;;;;5038091;28;20040;-37
2021/11/04 01:51:53;;;;;;;67.20;20.70;;;8.50;89.00;;;;;;5038536;28;20029;-35
2021/11/04 01:54:22;;;;;;;66.13;19.40;;;8.50;88.80;;;;;;5038941;28;20035;-36
2021/11/04 01:56:47;;;;;;;51.33;20.15;;;8.50;88.90;;;;;;5038731;28;20442;-36
2021/11/04 01:59:13;;;;;;;65.25;22.40;;;8.50;89.00;;;;;;5039170;28;20021;-36
2021/11/04 02:01:39;;;;;;;59.20;21.77;;;8.50;89.00;;;;;;5038397;28;20030;-35
2021/11/04 02:04:25;;;;;;;83.25;20.23;;;8.50;89.20;;;;;;5039098;28;20022;-35
2021/11/04 02:07:09;;;;;;;63.70;20.75;;;8.50;89.30;;;;;;5038348;28;20422;-36
2021/11/04 02:09:49;;;;;;;71.75;21.92;;;8.50;88.90;;;;;;5038850;28;20045;-36
2021/11/04 02:12:28;;;;;;;80.17;23.17;;;8.50;88.70;;;;;;5038367;28;20052;-36
2021/11/04 02:14:57;;;;;;;58.25;20.67;;;8.50;88.90;;;;;;5038807;28;20283;-37
2021/11/04 02:17:24;;;;;;;60.05;21.48;;;8.50;89.10;;;;;;5038232;28;20053;-38
2021/11/04 02:20:00;;;;;;;73.55;27.25;;;8.40;89.10;;;;;;5038564;28;20448;-38
2021/11/04 02:22:47;;;;;;;70.13;23.38;;;8.40;89.60;;;;;;5038246;28;20428;-36
2021/11/04 02:25:19;;;;;;;76.63;30.08;;;8.40;89.30;;;;;;5038710;28;20033;-38
2021/11/04 02:27:53;;;;;;;102.75;33.40;;;8.50;89.50;;;;;;5038132;28;20034;-36
2021/11/04 02:30:21;;;;;;;168.90;50.03;;;8.40;89.50;;;;;;5038658;28;20026;-37
2021/11/04 02:32:47;;;;;;;133.60;48.60;;;8.40;89.40;;;;;;5038144;28;20434;-36
2021/11/04 02:35:15;;;;;;;211.05;59.85;;;8.50;89.40;;;;;;5038018;28;20108;-36
2021/11/04 02:37:45;;;;;;;217.43;59.65;;;8.50;89.60;;;;;;5037863;28;20116;-37
2021/11/04 02:40:11;;;;;;;165.85;62.63;;;8.50;89.70;;;;;;5038331;28;20041;-37
2021/11/04 02:42:38;;;;;;;150.48;62.42;;;8.40;89.40;;;;;;5038003;28;20029;-36
2021/11/04 02:45:05;;;;;;;136.68;63.38;;;8.50;89.30;;;;;;5038269;28;20041;-36
2021/11/04 02:47:31;;;;;;;158.95;69.32;;;8.50;89.40;;;;;;5037862;28;20358;-37
2021/11/04 02:49:57;;;;;;;254.65;79.53;;;8.50;89.40;;;;;;5038253;28;20029;-36
2021/11/04 02:52:23;;;;;;;145.10;68.80;;;8.40;89.30;;;;;;5037762;28;20029;-36
2021/11/04 02:54:59;;;;;;;202.40;78.93;;;8.50;89.50;;;;;;5037547;28;20055;-36
2021/11/04 02:57:26;;;;;;;212.32;80.28;;;8.50;89.40;;;;;;5037439;28;20033;-36
2021/11/04 02:59:52;;;;;;;264.13;98.82;;;8.50;89.90;;;;;;5037937;28;20361;-36
2021/11/04 03:02:18;;;;;;;330.67;102.10;;;8.50;90.00;;;;;;5037751;28;20071;-37
2021/11/04 03:04:45;;;;;;;326.17;104.28;;;8.50;89.70;;;;;;5037751;28;20033;-36
2021/11/04 03:07:11;;;;;;;251.13;99.22;;;8.50;89.50;;;;;;5037654;28;20032;-37
2021/11/04 03:09:38;;;;;;;239.00;92.43;;;8.50;89.60;;;;;;5037744;28;20030;-37
2021/11/04 03:12:05;;;;;;;334.77;89.32;;;8.50;90.00;;;;;;5037188;28;20030;-36
2021/11/04 03:14:31;;;;;;;371.15;91.53;;;8.50;90.10;;;;;;5037458;28;20116;-36
2021/11/04 03:16:58;;;;;;;325.15;71.60;;;8.40;90.10;;;;;;5036134;28;20073;-36
2021/11/04 03:19:26;;;;;;;310.48;70.03;;;8.50;90.20;;;;;;5037415;28;20060;-36
2021/11/04 03:21:53;;;;;;;366.10;63.25;;;8.50;90.20;;;;;;5037170;28;20334;-38
2021/11/04 03:24:21;;;;;;;277.88;58.05;;;8.50;90.10;;;;;;5037232;28;20041;-37
2021/11/04 03:27:00;;;;;;;219.65;52.45;;;8.50;90.10;;;;;;5037046;28;20100;-36
2021/11/04 03:29:28;;;;;;;204.30;48.13;;;8.50;90.30;;;;;;5037527;28;20032;-36
2021/11/04 03:31:55;;;;;;;204.52;43.78;;;8.50;90.40;;;;;;5037021;28;20041;-37
2021/11/04 03:34:23;;;;;;;287.58;48.38;;;8.50;90.40;;;;;;5036946;28;20079;-36
2021/11/04 03:36:51;;;;;;;165.93;36.92;;;8.50;90.50;;;;;;5036584;28;20040;-36
2021/11/04 03:39:19;;;;;;;276.55;44.83;;;8.50;90.60;;;;;;5036951;28;20079;-37
2021/11/04 03:41:47;;;;;;;256.90;35.97;;;8.60;90.60;;;;;;5036916;28;20034;-36
2021/11/04 03:44:13;;;;;;;192.88;36.55;;;8.60;90.60;;;;;;5036703;28;20025;-36
2021/11/04 03:46:42;;;;;;;105.70;29.38;;;8.60;90.40;;;;;;5036385;28;20475;-36
2021/11/04 03:49:10;;;;;;;109.15;25.60;;;8.60;90.40;;;;;;5036986;28;20029;-36
2021/11/04 03:51:36;;;;;;;125.10;26.90;;;8.60;90.40;;;;;;5036459;28;20037;-37
2021/11/04 03:54:01;;;;;;;99.53;22.83;;;8.70;90.30;;;;;;5036646;28;20029;-36
2021/11/04 03:56:27;;;;;;;84.78;22.73;;;8.70;90.30;;;;;;5036816;28;20496;-36
2021/11/04 03:58:53;;;;;;;71.53;19.50;;;8.70;90.40;;;;;;5036224;28;20033;-37
2021/11/04 04:01:20;;;;;;;76.32;17.15;;;8.70;90.30;;;;;;5036743;28;20040;-36
2021/11/04 04:03:45;;;;;;;50.97;16.00;;;8.80;90.30;;;;;;5036199;28;20030;-36
2021/11/04 04:06:11;;;;;;;69.88;15.98;;;8.80;90.20;;;;;;5036135;28;20477;-36
2021/11/04 04:08:42;;;;;;;45.50;15.63;;;8.80;90.20;;;;;;5036276;28;20325;-37
2021/11/04 04:11:08;;;;;;;65.63;16.40;;;8.80;90.10;;;;;;5036453;28;20549;-36
2021/11/04 04:13:34;;;;;;;68.78;16.27;;;8.80;90.10;;;;;;5035976;28;20289;-36
2021/11/04 04:16:00;;;;;;;75.18;17.45;;;8.80;90.00;;;;;;5036365;28;20061;-36
2021/11/04 04:18:26;;;;;;;61.72;13.82;;;8.80;90.00;;;;;;5035922;28;20061;-37
2021/11/04 04:20:51;;;;;;;39.65;15.98;;;8.80;90.10;;;;;;5035976;28;20042;-37
2021/11/04 04:23:19;;;;;;;78.05;15.68;;;8.80;90.10;;;;;;5036176;28;20104;-36
2021/11/04 04:25:45;;;;;;;51.42;16.45;;;8.80;90.20;;;;;;5036298;28;20037;-35
2021/11/04 04:28:10;;;;;;;43.67;15.85;;;8.80;90.30;;;;;;5035761;28;20021;-36
2021/11/04 04:30:36;;;;;;;49.10;17.80;;;8.80;90.30;;;;;;5036295;28;20032;-36
2021/11/04 04:33:02;;;;;;;60.38;19.73;;;8.80;90.40;;;;;;5035669;28;20041;-37
2021/11/04 04:35:28;;;;;;;36.17;15.98;;;8.90;90.40;;;;;;5036371;28;20330;-37
2021/11/04 04:37:53;;;;;;;82.07;17.75;;;8.90;90.40;;;;;;5035623;28;20065;-37
2021/11/04 04:40:19;;;;;;;94.22;18.23;;;8.90;90.40;;;;;;5036235;28;20559;-36
2021/11/04 04:42:45;;;;;;;85.65;19.95;;;8.90;90.40;;;;;;5035524;28;20033;-37
2021/11/04 04:45:11;;;;;;;59.72;16.30;;;8.90;90.40;;;;;;5036142;28;20108;-36
2021/11/04 04:47:36;;;;;;;106.07;19.33;;;9.00;90.50;;;;;;5035474;28;20037;-36
2021/11/04 04:50:04;;;;;;;67.45;18.52;;;9.00;90.50;;;;;;5036061;28;20033;-36
2021/11/04 04:52:30;;;;;;;137.73;21.27;;;9.00;90.60;;;;;;5035842;28;20318;-36
2021/11/04 04:54:56;;;;;;;198.43;22.25;;;9.10;90.70;;;;;;5035494;28;20128;-36
2021/11/04 04:57:23;;;;;;;59.00;16.60;;;9.10;90.70;;;;;;5035743;28;20457;-36
2021/11/04 04:59:51;;;;;;;79.70;18.08;;;9.10;90.70;;;;;;5035784;28;20068;-36
2021/11/04 05:02:16;;;;;;;64.03;16.23;;;9.20;90.80;;;;;;5035716;28;20386;-37
2021/11/04 05:04:42;;;;;;;44.38;16.50;;;9.20;90.90;;;;;;5035821;28;20108;-35
2021/11/04 05:07:08;;;;;;;55.15;21.05;;;9.20;90.90;;;;;;5035538;28;20030;-41
2021/11/04 05:09:33;;;;;;;67.82;26.05;;;9.30;90.90;;;;;;5034502;28;20032;-36
2021/11/04 05:12:00;;;;;;;88.22;28.05;;;9.30;90.90;;;;;;5035257;28;20026;-36
2021/11/04 05:14:26;;;;;;;73.90;21.63;;;9.40;90.90;;;;;;5035406;28;20448;-37
2021/11/04 05:16:52;;;;;;;76.20;20.52;;;9.40;90.90;;;;;;5035202;28;20030;-35
2021/11/04 05:19:17;;;;;;;104.10;20.95;;;9.40;90.80;;;;;;5037269;28;20029;-35
2021/11/04 05:21:43;;;;;;;104.18;18.35;;;9.50;90.80;;;;;;5039496;28;20061;-36
2021/11/04 05:24:09;;;;;;;49.65;13.75;;;9.50;90.70;;;;;;5039336;28;20136;-35
2021/11/04 05:26:36;;;;;;;50.40;14.80;;;9.50;90.70;;;;;;5038867;28;20433;-36
2021/11/04 05:29:02;;;;;;;79.30;16.00;;;9.60;90.80;;;;;;5039689;28;20036;-36
2021/11/04 05:31:28;;;;;;;48.28;16.02;;;9.60;90.80;;;;;;5039170;28;20029;-36
2021/11/04 05:33:54;;;;;;;61.13;14.18;;;9.60;90.90;;;;;;5038853;28;20031;-37
2021/11/04 05:36:23;;;;;;;170.13;35.65;;;9.70;90.90;;;;;;5039100;28;20100;-36
2021/11/04 05:38:50;;;;;;;103.80;20.38;;;9.70;90.90;;;;;;5038676;28;20036;-35
2021/11/04 05:41:16;;;;;;;75.32;17.35;;;9.70;91.00;;;;;;5039300;28;20114;-35
2021/11/04 05:43:42;;;;;;;92.57;19.15;;;9.70;91.10;;;;;;5038736;28;20029;-36
2021/11/04 05:46:07;;;;;;;70.75;13.73;;;9.80;91.20;;;;;;5038672;28;20033;-35
2021/11/04 05:48:33;;;;;;;69.25;12.55;;;9.80;91.20;;;;;;5038747;28;20079;-36
2021/11/04 05:50:59;;;;;;;53.35;12.57;;;9.90;91.20;;;;;;5039317;28;20414;-36
2021/11/04 05:53:25;;;;;;;60.33;13.80;;;9.90;91.20;;;;;;5038194;28;20022;-37
2021/11/04 05:55:51;;;;;;;44.28;14.45;;;9.90;91.20;;;;;;5038580;28;20462;-36
2021/11/04 05:58:17;;;;;;;51.08;16.58;;;10.00;91.20;;;;;;5038436;28;20032;-35
2021/11/04 06:00:43;;;;;;;65.97;26.27;;;10.10;91.30;;;;;;5038284;28;20068;-36
2021/11/04 06:03:11;;;;;;;52.28;20.88;;;10.00;91.30;;;;;;5038659;28;20155;-37
2021/11/04 06:05:37;;;;;;;50.13;16.02;;;10.10;91.60;;;;;;5038790;28;20057;-35
2021/11/04 06:08:03;;;;;;;85.07;17.45;;;10.20;91.30;;;;;;5038203;28;20394;-36
2021/11/04 06:10:28;;;;;;;108.80;24.98;;;10.20;91.30;;;;;;5038780;28;20036;-37
2021/11/04 06:12:54;;;;;;;76.35;19.10;;;10.20;91.20;;;;;;5038100;28;20060;-37
2021/11/04 06:15:21;;;;;;;108.00;18.30;;;10.30;91.30;;;;;;5038580;28;20079;-35
2021/11/04 06:17:46;;;;;;;92.93;22.85;;;10.30;91.20;;;;;;5037915;28;20121;-36
2021/11/04 06:20:12;;;;;;;105.38;19.00;;;10.30;91.30;;;;;;5038361;28;20112;-37
2021/11/04 06:22:38;;;;;;;48.00;17.40;;;10.40;91.20;;;;;;5037932;28;20057;-37
2021/11/04 06:25:04;;;;;;;86.90;22.23;;;10.50;91.20;;;;;;5037932;28;20358;-36
2021/11/04 06:27:30;;;;;;;116.93;23.65;;;10.50;91.20;;;;;;5057935;28;20059;-37
2021/11/04 06:29:56;;;;;;;98.65;25.30;;;10.50;91.20;;;;;;5057466;28;20029;-35
2021/11/04 06:32:21;;;;;;;88.50;19.08;;;10.60;91.10;;;;;;5057509;28;20037;-37
2021/11/04 06:34:47;;;;;;;43.00;11.30;;;10.60;91.00;;;;;;5057571;28;20036;-36
2021/11/04 06:37:13;;;;;;;53.25;12.60;;;10.60;90.90;;;;;;5057444;28;20044;-36
2021/11/04 06:39:39;;;;;;;50.90;14.70;;;10.60;90.90;;;;;;5057507;28;20032;-36
2021/11/04 06:42:05;;;;;;;81.45;34.63;;;10.70;91.20;;;;;;5057257;28;20037;-37
2021/11/04 06:44:31;;;;;;;124.95;21.90;;;10.70;91.00;;;;;;5057253;28;20021;-37
2021/11/04 06:47:01;;;;;;;65.82;23.38;;;10.70;91.00;;;;;;5057348;28;20044;-37
2021/11/04 06:49:32;;;;;;;59.20;17.63;;;10.80;91.20;;;;;;5057696;28;20021;-36
2021/11/04 06:51:58;;;;;;;62.22;25.58;;;10.80;91.30;;;;;;5057220;28;20108;-36
2021/11/04 06:54:25;;;;;;;59.80;19.60;;;10.90;91.20;;;;;;5057054;28;20755;-35
2021/11/04 06:56:52;;;;;;;47.63;13.52;;;10.90;91.20;;;;;;5056852;28;20056;-36
2021/11/04 06:59:19;;;;;;;87.43;21.30;;;11.00;91.20;;;;;;5057266;28;20033;-36
2021/11/04 07:01:50;;;;;;;83.45;26.17;;;11.00;91.00;;;;;;5055493;28;20421;-37
2021/11/04 07:04:29;;;;;;;63.28;21.35;;;11.10;91.10;;;;;;5056359;28;20333;-36
2021/11/04 07:07:05;;;;;;;65.60;21.90;;;11.10;91.10;;;;;;5056989;28;20033;-36
2021/11/04 07:09:33;;;;;;;78.78;20.85;;;11.10;91.00;;;;;;5057203;28;20062;-35
2021/11/04 07:12:00;;;;;;;48.83;16.13;;;11.10;90.90;;;;;;5056890;28;20029;-37
2021/11/04 07:14:31;;;;;;;67.72;20.00;;;11.20;90.90;;;;;;5057063;28;20025;-35
2021/11/04 07:16:59;;;;;;;51.97;19.05;;;11.20;90.70;;;;;;5056611;28;20082;-36
2021/11/04 07:19:26;;;;;;;57.13;21.77;;;11.20;90.70;;;;;;5056940;28;20021;-36
2021/11/04 07:21:58;;;;;;;83.63;19.10;;;11.20;90.70;;;;;;5056297;28;20120;-37
2021/11/04 07:24:31;;;;;;;49.97;28.33;;;11.30;90.60;;;;;;5056749;28;20029;-37
2021/11/04 07:27:10;;;;;;;84.47;34.30;;;11.30;90.60;;;;;;5056392;28;20536;-36
2021/11/04 07:29:41;;;;;;;55.67;18.63;;;11.30;90.60;;;;;;5056915;28;20436;-36
2021/11/04 07:32:12;;;;;;;49.60;15.43;;;11.30;90.60;;;;;;5056265;28;20050;-37
2021/11/04 07:34:41;;;;;;;88.43;18.25;;;11.30;90.50;;;;;;5056450;28;20036;-37
2021/11/04 07:37:09;;;;;;;69.30;16.63;;;11.30;90.40;;;;;;5056095;28;20040;-37
2021/11/04 07:39:35;;;;;;;39.22;15.55;;;11.40;90.40;;;;;;5056191;28;20031;-35
2021/11/04 07:42:01;;;;;;;47.97;14.65;;;11.30;90.30;;;;;;5054227;28;20033;-36
2021/11/04 07:44:27;;;;;;;113.55;17.20;;;11.40;90.30;;;;;;5056885;28;20052;-35
2021/11/04 07:46:53;;;;;;;81.00;13.77;;;11.40;90.30;;;;;;5056115;28;20060;-36
2021/11/04 07:49:18;;;;;;;39.05;11.55;;;11.40;90.30;;;;;;5056545;28;20035;-35
2021/11/04 07:51:46;;;;;;;37.03;11.48;;;11.40;90.20;;;;;;5055912;28;20314;-37
2021/11/04 07:54:12;;;;;;;45.75;14.63;;;11.40;90.30;;;;;;5056172;28;20401;-35
2021/11/04 07:56:37;;;;;;;32.22;14.00;;;11.40;90.30;;;;;;5055720;28;20111;-37
2021/11/04 07:59:03;;;;;;;45.63;14.20;;;11.40;90.30;;;;;;5055938;28;20123;-36
2021/11/04 08:01:28;;;;;;;51.20;17.83;;;11.40;90.30;;;;;;5055942;28;20068;-36
2021/11/04 08:03:54;;;;;;;54.75;16.40;;;11.50;90.40;;;;;;5056009;28;20037;-38
2021/11/04 08:06:20;;;;;;;42.42;17.83;;;11.50;90.70;;;;;;5055679;28;20076;-37
2021/11/04 08:08:46;;;;;;;37.22;18.20;;;11.50;90.50;;;;;;5055885;28;20124;-36
2021/11/04 08:11:12;;;;;;;28.17;17.13;;;11.50;90.50;;;;;;5055909;28;20104;-38
2021/11/04 08:13:39;;;;;;;44.63;18.63;;;11.60;90.60;;;;;;5055716;28;20051;-35
2021/11/04 08:16:04;;;;;;;29.35;16.60;;;11.60;90.50;;;;;;5055674;28;20068;-35
2021/11/04 08:18:30;;;;;;;40.85;20.55;;;11.70;90.50;;;;;;5055249;28;20048;-36
2021/11/04 08:20:56;;;;;;;61.63;21.08;;;11.70;90.60;;;;;;5055110;28;20333;-38
2021/11/04 08:23:22;;;;;;;35.33;19.58;;;11.80;90.60;;;;;;5055662;28;20041;-36
2021/11/04 08:25:48;;;;;;;41.20;22.02;;;11.80;90.60;;;;;;5055754;28;20037;-36
2021/11/04 08:28:14;;;;;;;44.17;23.13;;;11.80;90.50;;;;;;5055588;28;20021;-36
2021/11/04 08:30:40;;;;;;;48.95;25.15;;;11.90;90.50;;;;;;5055330;28;20037;-35
2021/11/04 08:33:06;;;;;;;45.67;23.98;;;11.90;90.50;;;;;;5055186;28;20420;-37
2021/11/04 08:35:31;;;;;;;44.05;24.83;;;12.00;90.50;;;;;;5054466;28;20032;-37
2021/11/04 08:37:57;;;;;;;49.17;27.27;;;12.00;90.50;;;;;;5055726;28;20405;-38
2021/11/04 08:40:23;;;;;;;54.15;32.05;;;12.10;90.50;;;;;;5056117;28;20033;-37
2021/11/04 08:42:50;;;;;;;54.20;29.58;;;12.10;90.50;;;;;;5055490;28;20075;-38
2021/11/04 08:45:16;;;;;;;50.08;30.33;;;12.20;90.50;;;;;;5056045;28;20060;-36
2021/11/04 08:47:42;;;;;;;51.30;29.92;;;12.20;90.40;;;;;;5055454;28;20033;-37
2021/11/04 08:50:09;;;;;;;53.88;31.40;;;12.30;90.20;;;;;;5055840;28;20128;-35
2021/11/04 08:52:37;;;;;;;49.05;24.45;;;12.30;90.20;;;;;;5055339;28;20112;-37
2021/11/04 08:55:08;;;;;;;41.58;24.48;;;12.40;89.60;;;;;;5051060;28;20056;-37
2021/11/04 08:57:33;;;;;;;;;;;12.40;89.30;;;;;;5055576;28;20043;-36
2021/11/04 08:59:59;;;;;;;81.47;34.03;;;12.40;89.30;;;;;;5055468;28;19908;-36
2021/11/04 09:02:25;;;;;;;58.85;28.13;;;12.40;89.30;;;;;;5055247;28;20452;-35
2021/11/04 09:04:52;;;;;;;46.20;25.52;;;12.40;89.20;;;;;;5055257;28;20036;-34
2021/11/04 09:07:19;;;;;;;45.30;27.15;;;12.50;88.80;;;;;;5054765;28;20029;-35
2021/11/04 09:09:46;;;;;;;56.30;34.47;;;12.50;88.40;;;;;;5054819;28;20325;-36
2021/11/04 09:12:13;;;;;;;36.58;21.77;;;12.50;88.20;;;;;;5054735;28;20314;-38
2021/11/04 09:14:39;;;;;;;34.80;18.83;;;12.50;88.10;;;;;;5055258;28;20308;-37
2021/11/04 09:17:06;;;;;;;37.22;19.08;;;12.60;88.00;;;;;;5054851;28;20337;-37
2021/11/04 09:19:32;;;;;;;36.53;23.17;;;12.60;87.90;;;;;;5054890;28;20033;-38
2021/11/04 09:21:59;;;;;;;34.08;19.90;;;12.60;87.70;;;;;;5054408;28;20501;-37
2021/11/04 09:24:26;;;;;;;34.30;21.50;;;12.60;87.80;;;;;;5055172;28;20067;-36
2021/11/04 09:26:53;;;;;;;35.45;22.73;;;12.60;87.70;;;;;;5054910;28;20037;-37
2021/11/04 09:29:18;;;;;;;33.42;19.60;;;12.70;87.70;;;;;;5055219;28;20025;-36
2021/11/04 09:31:44;;;;;;;31.08;19.85;;;12.70;87.40;;;;;;5054614;28;20033;-38
2021/11/04 09:34:10;;;;;;;31.73;19.13;;;12.80;87.20;;;;;;5054975;28;20037;-37
2021/11/04 09:36:35;;;;;;;30.00;19.65;;;12.80;86.90;;;;;;5054743;28;20359;-36
2021/11/04 09:39:04;;;;;;;35.35;18.85;;;12.80;86.60;;;;;;5053656;28;20032;-36
2021/11/04 09:41:31;;;;;;;29.83;19.23;;;12.80;86.40;;;;;;5054816;28;20360;-36
2021/11/04 09:43:58;;;;;;;31.50;20.17;;;12.80;86.50;;;;;;5054932;28;20029;-35
2021/11/04 09:46:24;;;;;;;34.38;21.63;;;12.80;86.30;;;;;;5055001;28;20468;-38
2021/11/04 09:48:51;;;;;;;39.58;24.50;;;12.80;86.50;;;;;;5054383;28;20017;-38
2021/11/04 09:51:17;;;;;;;32.75;19.73;;;12.80;86.40;;;;;;5054622;28;20040;-35
2021/11/04 09:53:43;;;;;;;32.72;19.30;;;12.90;86.40;;;;;;5054565;28;20107;-37
2021/11/04 09:56:09;;;;;;;30.85;19.20;;;12.90;86.60;;;;;;5054191;28;20048;-37
2021/11/04 09:58:34;;;;;;;35.15;21.77;;;12.90;86.70;;;;;;5054563;28;20127;-37
2021/11/04 10:01:24;;;;;;;34.83;20.80;;;13.00;86.70;;;;;;5054570;28;20040;-36
2021/11/04 10:03:50;;;;;;;33.47;20.05;;;13.00;86.40;;;;;;5054254;28;20041;-37
2021/11/04 10:06:35;;;;;;;32.35;20.63;;;13.00;86.60;;;;;;5057627;28;20337;-36
2021/11/04 10:09:09;;;;;;;34.95;21.08;;;13.10;86.30;;;;;;5058217;28;20029;-36
2021/11/04 10:11:40;;;;;;;32.75;20.35;;;13.10;86.10;;;;;;5058478;28;20362;-36
2021/11/04 10:14:11;;;;;;;29.35;18.58;;;13.20;85.90;;;;;;5058155;28;20036;-36
2021/11/04 10:16:38;;;;;;;33.83;19.42;;;13.20;85.40;;;;;;5058104;28;20060;-37
2021/11/04 10:19:07;;;;;;;32.10;18.95;;;13.20;85.20;;;;;;5058332;28;20037;-36
2021/11/04 10:21:34;;;;;;;46.00;21.55;;;13.20;84.90;;;;;;5057876;28;20037;-36
2021/11/04 10:24:00;;;;;;;36.03;19.95;;;13.20;84.80;;;;;;5057048;28;20123;-37
2021/11/04 10:26:30;;;;;;;37.97;20.92;;;13.20;84.50;;;;;;5058066;28;20440;-39
2021/11/04 10:29:05;;;;;;;32.33;18.63;;;13.20;84.30;;;;;;5058182;28;20446;-38
2021/11/04 10:31:41;;;;;;;35.60;20.67;;;13.20;84.40;;;;;;5057637;28;20147;-38
2021/11/04 10:34:23;;;;;;;33.28;20.73;;;13.20;84.40;;;;;;5058221;28;20342;-38
2021/11/04 10:36:48;;;;;;;38.13;20.25;;;13.20;84.50;;;;;;5057671;28;20036;-38
2021/11/04 10:39:14;;;;;;;52.92;24.42;;;13.30;84.40;;;;;;5057893;28;20028;-37
2021/11/04 10:41:43;;;;;;;42.75;24.27;;;13.30;84.30;;;;;;5057315;28;20041;-37
2021/11/04 10:44:15;;;;;;;55.90;24.48;;;13.30;84.10;;;;;;5056923;28;20025;-35
2021/11/04 10:46:51;;;;;;;52.80;22.98;;;13.20;83.70;;;;;;5057568;28;20056;-37
2021/11/04 10:49:19;;;;;;;45.10;28.02;;;13.20;83.80;;;;;;5057894;28;20021;-36
2021/11/04 10:51:54;;;;;;;40.03;22.27;;;13.20;83.80;;;;;;5057395;28;20040;-38
2021/11/04 10:54:19;;;;;;;35.80;20.65;;;13.20;84.20;;;;;;5057769;28;20053;-36
2021/11/04 10:56:51;;;;;;;40.30;22.08;;;13.30;84.20;;;;;;5057105;28;20052;-37
2021/11/04 10:59:18;;;;;;;30.85;19.30;;;13.20;84.10;;;;;;5057455;28;20037;-37
2021/11/04 11:01:47;;;;;;;35.78;19.25;;;13.30;84.30;;;;;;5056899;28;20079;-36
2021/11/04 11:04:15;;;;;;;40.83;19.95;;;13.30;83.90;;;;;;5057715;28;20067;-37
2021/11/04 11:06:43;;;;;;;55.83;22.40;;;13.30;83.40;;;;;;5056545;28;20037;-36
2021/11/04 11:09:20;;;;;;;82.22;22.92;;;13.30;83.10;;;;;;5057383;28;20028;-36
2021/11/04 11:11:49;;;;;;;46.55;20.27;;;13.20;82.80;;;;;;5057240;28;20102;-36
2021/11/04 11:14:16;;;;;;;66.65;21.83;;;13.20;82.80;;;;;;5057304;28;20108;-36
2021/11/04 11:16:44;;;;;;;38.72;18.98;;;13.10;82.80;;;;;;5056906;28;20095;-36
2021/11/04 11:19:11;;;;;;;64.25;18.67;;;13.10;83.50;;;;;;5057299;28;20029;-36
2021/11/04 11:21:42;;;;;;;54.17;19.02;;;13.00;83.50;;;;;;5056697;28;20421;-35
2021/11/04 11:24:12;;;;;;;41.90;19.83;;;13.00;83.60;;;;;;5057244;28;20482;-36
2021/11/04 11:26:39;;;;;;;43.58;17.40;;;13.00;83.80;;;;;;5056152;28;20037;-36
2021/11/04 11:29:05;;;;;;;49.67;19.98;;;13.00;83.80;;;;;;5057178;28;20057;-36
2021/11/04 11:31:31;;;;;;;36.03;21.83;;;12.90;83.80;;;;;;5056552;28;20440;-35
2021/11/04 11:34:06;;;;;;;41.65;23.55;;;12.90;84.10;;;;;;5057054;28;20021;-37
2021/11/04 11:36:32;;;;;;;41.90;21.70;;;12.90;84.50;;;;;;5055499;28;20041;-37
2021/11/04 11:38:59;;;;;;;38.63;20.88;;;12.90;84.70;;;;;;5057118;28;20059;-37
2021/11/04 11:41:47;;;;;;;42.45;24.75;;;12.90;84.90;;;;;;5056412;28;20032;-36
2021/11/04 11:44:13;;;;;;;44.83;23.70;;;13.00;85.40;;;;;;5056773;28;20090;-36
2021/11/04 11:47:00;;;;;;;35.33;22.33;;;13.00;84.80;;;;;;5056142;28;20037;-36
2021/11/04 11:49:39;;;;;;;44.85;22.30;;;13.10;84.70;;;;;;5056612;28;20025;-37
2021/11/04 11:52:10;;;;;;;45.85;23.75;;;13.10;84.60;;;;;;5056547;28;20037;-36
2021/11/04 11:54:53;;;;;;;29.42;17.42;;;13.10;84.80;;;;;;5056290;28;20045;-37
2021/11/04 11:57:19;;;;;;;27.05;16.80;;;13.20;84.40;;;;;;5056175;28;20033;-37
2021/11/04 11:59:53;;;;;;;31.05;19.38;;;13.20;84.00;;;;;;5056407;28;20029;-36
2021/11/04 12:02:37;;;;;;;43.95;16.25;;;13.20;83.70;;;;;;5055904;28;20417;-37
2021/11/04 12:05:37;;;;;;;21.80;15.07;;;13.30;83.20;;;;;;5056240;28;20033;-36
2021/11/04 12:08:09;;;;;;;25.43;16.10;;;13.30;83.20;;;;;;5056263;28;20033;-37
2021/11/04 12:10:42;;;;;;;25.88;15.52;;;13.30;83.30;;;;;;5056575;28;20285;-38
2021/11/04 12:13:31;;;;;;;19.50;13.70;;;13.30;83.00;;;;;;5056222;28;20033;-37
2021/11/04 12:16:20;;;;;;;23.05;16.30;;;13.30;82.70;;;;;;5055965;28;20037;-37
2021/11/04 12:19:00;;;;;;;25.52;14.10;;;13.30;82.30;;;;;;5055750;28;20020;-36
2021/11/04 12:21:28;;;;;;;29.75;14.77;;;13.30;82.30;;;;;;5055978;28;20427;-38
2021/11/04 12:23:57;;;;;;;34.55;14.77;;;13.30;82.10;;;;;;5055774;28;20059;-37
2021/11/04 12:26:34;;;;;;;28.92;15.60;;;13.20;82.10;;;;;;5055748;28;20092;-38
2021/11/04 12:29:05;;;;;;;25.15;16.00;;;13.20;82.10;;;;;;5055707;28;20025;-37
2021/11/04 12:31:32;;;;;;;22.70;16.13;;;13.20;82.30;;;;;;5055785;28;20037;-37
2021/11/04 12:34:07;;;;;;;23.85;16.40;;;13.20;82.50;;;;;;5055988;28;20104;-37
2021/11/04 12:36:35;;;;;;;25.83;17.23;;;13.20;82.70;;;;;;5055258;28;20487;-37